Time;durP1;ratioP1;P1;durP2;ratioP2;P2;SDS_P1;SDS_P2;PMS_P1;PMS_P2;Temp;Humidity;BMP_temperature;BMP_pressure;BME280_temperature;BME280_humidity;BME280_pressure;Samples;Min_cycle;Max_cycle;Signal;HPM_P1;HPM_P2
2022/07/03 00:00:13;;;;;;;11.48;9.15;;;;;;;20.86;100.00;98441.46;1743463;82;20894;-64
2022/07/03 00:02:40;;;;;;;10.23;9.08;;;;;;;20.88;100.00;98444.63;1743496;82;20919;-63
2022/07/03 00:05:08;;;;;;;14.28;9.25;;;;;;;20.89;100.00;98443.50;1743400;82;20906;-64
2022/07/03 00:07:38;;;;;;;10.23;8.50;;;;;;;20.86;100.00;98444.18;1743431;82;20958;-64
2022/07/03 00:10:06;;;;;;;11.55;8.83;;;;;;;20.83;99.69;98443.50;1743415;82;21199;-61
2022/07/03 00:12:33;;;;;;;10.05;9.05;;;;;;;20.81;99.70;98441.70;1743419;82;20899;-60
2022/07/03 00:14:59;;;;;;;11.53;9.48;;;;;;;20.81;99.93;98443.86;1743493;82;20910;-61
2022/07/03 00:17:26;;;;;;;11.75;8.90;;;;;;;20.82;100.00;98444.66;1743399;82;20863;-61
2022/07/03 00:19:55;;;;;;;9.93;8.78;;;;;;;20.81;100.00;98440.34;1743450;82;20938;-62
2022/07/03 00:22:21;;;;;;;15.68;9.25;;;;;;;20.81;100.00;98443.86;1743504;82;21218;-63
2022/07/03 00:24:51;;;;;;;9.90;8.88;;;;;;;20.81;100.00;98438.98;1743343;82;20902;-64
2022/07/03 00:27:20;;;;;;;10.28;9.25;;;;;;;20.81;100.00;98434.89;1743307;81;20895;-63
2022/07/03 00:29:47;;;;;;;10.23;9.08;;;;;;;20.80;100.00;98436.02;1743387;82;20938;-61
2022/07/03 00:32:16;;;;;;;9.98;8.95;;;;;;;20.77;100.00;98425.28;1743399;82;20914;-61
2022/07/03 00:34:43;;;;;;;9.35;8.50;;;;;;;20.77;100.00;98425.84;1721524;82;21821;-64
2022/07/03 00:37:09;;;;;;;10.72;9.63;;;;;;;20.74;100.00;98428.69;1743439;82;20867;-63
2022/07/03 00:39:38;;;;;;;11.85;9.13;;;;;;;20.73;100.00;98427.66;1743409;82;20910;-64
2022/07/03 00:42:06;;;;;;;11.22;9.53;;;;;;;20.76;100.00;98428.33;1743481;82;20942;-60
2022/07/03 00:44:36;;;;;;;10.78;8.90;;;;;;;20.73;100.00;98423.57;1744478;82;20962;-61
2022/07/03 00:47:05;;;;;;;10.18;8.48;;;;;;;20.72;100.00;98422.80;1745979;82;21781;-60
2022/07/03 00:49:34;;;;;;;10.90;8.85;;;;;;;20.72;100.00;98422.00;1745699;82;20978;-61
2022/07/03 00:52:02;;;;;;;10.65;8.95;;;;;;;20.71;100.00;98417.13;1745767;82;20863;-61
2022/07/03 00:54:29;;;;;;;10.08;9.18;;;;;;;20.69;100.00;98426.77;1701229;82;20891;-61
2022/07/03 00:56:55;;;;;;;11.53;8.78;;;;;;;20.68;100.00;98416.45;1746046;82;20890;-64
2022/07/03 00:59:24;;;;;;;11.05;8.63;;;;;;;20.68;100.00;98415.67;1745835;82;21718;-64
2022/07/03 01:01:55;;;;;;;9.43;8.43;;;;;;;20.67;100.00;98422.24;1745985;82;21394;-63
2022/07/03 01:04:36;;;;;;;10.03;8.80;;;;;;;20.67;100.00;98420.88;1746042;82;20946;-60
2022/07/03 01:07:09;;;;;;;10.28;9.18;;;;;;;20.65;100.00;98424.52;1747029;81;20934;-63
2022/07/03 01:09:58;;;;;;;9.33;8.35;;;;;;;20.62;100.00;98426.56;1745855;82;20974;-61
2022/07/03 01:13:03;;;;;;;10.23;8.40;;;;;;;20.58;100.00;98426.48;1745808;82;20871;-59
2022/07/03 01:16:03;;;;;;;10.80;8.95;;;;;;;20.56;100.00;98423.87;1744362;82;20883;-63
2022/07/03 01:18:46;;;;;;;9.35;8.45;;;;;;;20.47;100.00;98421.27;1745731;82;20918;-61
2022/07/03 01:21:30;;;;;;;8.33;7.40;;;;;;;20.41;100.00;98425.38;1745805;82;20934;-58
2022/07/03 01:24:26;;;;;;;8.50;7.70;;;;;;;20.34;100.00;98421.89;1745989;82;20882;-61
2022/07/03 01:27:00;;;;;;;8.08;7.28;;;;;;;20.34;100.00;98428.69;1746122;82;21128;-61
2022/07/03 01:29:53;;;;;;;7.92;7.22;;;;;;;20.36;100.00;98425.61;1745704;82;20922;-62
2022/07/03 01:32:22;;;;;;;8.43;7.60;;;;;;;20.39;100.00;98421.66;1703280;82;20902;-63
2022/07/03 01:34:52;;;;;;;8.40;7.60;;;;;;;20.41;100.00;98416.66;1697781;84;20964;-61
2022/07/03 01:37:22;;;;;;;7.50;6.72;;;;;;;20.41;100.00;98413.94;1698281;84;20903;-61
2022/07/03 01:39:51;;;;;;;7.37;6.60;;;;;;;20.41;100.00;98412.58;1697900;84;21219;-62
2022/07/03 01:42:19;;;;;;;8.90;6.97;;;;;;;20.41;100.00;98410.42;1697983;84;20852;-64
2022/07/03 01:44:49;;;;;;;11.68;7.83;;;;;;;20.40;100.00;98408.26;1697730;82;20998;-63
2022/07/03 01:47:15;;;;;;;8.80;7.08;;;;;;;20.39;100.00;98402.61;1701645;84;20898;-61
2022/07/03 01:49:42;;;;;;;7.97;6.72;;;;;;;20.38;100.00;98401.02;1702578;84;20918;-64
2022/07/03 01:52:10;;;;;;;7.33;6.40;;;;;;;20.38;100.00;98394.77;1702539;84;21111;-63
2022/07/03 01:54:39;;;;;;;10.15;6.62;;;;;;;20.39;100.00;98396.38;1702602;83;20919;-62
2022/07/03 01:57:06;;;;;;;10.08;6.62;;;;;;;20.38;100.00;98388.77;1704374;83;20902;-64
2022/07/03 01:59:32;;;;;;;7.25;6.55;;;;;;;20.38;100.00;98394.77;1702527;84;21001;-65
2022/07/03 02:02:20;;;;;;;8.95;6.95;;;;;;;20.39;100.00;98394.45;1702660;83;21403;-65
2022/07/03 02:04:56;;;;;;;10.18;7.30;;;;;;;20.40;100.00;98389.22;1702525;84;21118;-59
2022/07/03 02:07:54;;;;;;;8.93;7.95;;;;;;;20.42;100.00;98395.10;1702540;83;20941;-64
2022/07/03 02:10:27;;;;;;;9.10;7.90;;;;;;;20.39;100.00;98394.45;1701109;84;21053;-60
2022/07/03 02:13:00;;;;;;;8.90;7.70;;;;;;;20.32;100.00;98386.64;1701938;84;20993;-62
2022/07/03 02:15:32;;;;;;;9.93;8.55;;;;;;;20.29;100.00;98386.76;1702268;84;20902;-63
2022/07/03 02:18:13;;;;;;;10.23;8.88;;;;;;;20.25;100.00;98390.52;1702568;83;21470;-60
2022/07/03 02:20:40;;;;;;;15.43;10.23;;;;;;;20.24;100.00;98389.72;1688175;84;21431;-61
2022/07/03 02:23:07;;;;;;;11.00;9.90;;;;;;;20.24;100.00;98390.27;1702758;83;21462;-62
2022/07/03 02:25:38;;;;;;;11.18;10.00;;;;;;;20.20;100.00;98388.00;1702614;84;20938;-64
2022/07/03 02:28:10;;;;;;;10.28;9.28;;;;;;;20.16;100.00;98385.16;1702816;83;20938;-60
2022/07/03 02:30:38;;;;;;;9.78;8.73;;;;;;;20.11;100.00;98390.86;1702734;84;21083;-64
2022/07/03 02:33:05;;;;;;;10.58;9.38;;;;;;;20.08;100.00;98391.53;1680664;84;20958;-60
2022/07/03 02:35:33;;;;;;;9.20;8.28;;;;;;;20.02;100.00;98392.88;1702520;84;20954;-64
2022/07/03 02:38:22;;;;;;;9.73;7.72;;;;;;;19.99;100.00;98388.15;1702820;83;21438;-63
2022/07/03 02:41:05;;;;;;;8.65;6.67;;;;;;;19.98;100.00;98395.27;1702670;84;21449;-65
2022/07/03 02:44:01;;;;;;;8.00;5.85;;;;;;;19.93;100.00;98393.58;1745702;82;21078;-63
2022/07/03 02:47:03;;;;;;;7.47;5.78;;;;;;;19.85;100.00;98399.94;1745675;82;20875;-62
2022/07/03 02:50:08;;;;;;;5.72;5.12;;;;;;;19.80;100.00;98402.88;1745729;82;20851;-60
2022/07/03 02:52:43;;;;;;;6.65;5.75;;;;;;;19.75;100.00;98405.27;1745895;82;20931;-60
2022/07/03 02:55:36;;;;;;;6.87;5.37;;;;;;;19.70;100.00;98407.41;1746001;82;20882;-62
2022/07/03 02:58:42;;;;;;;5.67;4.70;;;;;;;19.67;100.00;98402.64;1745694;81;21253;-60
2022/07/03 03:01:41;;;;;;;5.37;4.58;;;;;;;19.65;100.00;98399.47;1745458;82;20911;-61
2022/07/03 03:04:24;;;;;;;4.92;4.28;;;;;;;19.65;100.00;98400.27;1745878;82;20914;-64
2022/07/03 03:07:14;;;;;;;5.30;4.80;;;;;;;19.66;100.00;98402.43;1745457;81;20978;-63
2022/07/03 03:09:47;;;;;;;5.95;4.22;;;;;;;19.61;100.00;98408.88;1745836;82;20926;-61
2022/07/03 03:12:15;;;;;;;4.00;3.70;;;;;;;19.58;100.00;98405.47;1715541;82;20908;-63
2022/07/03 03:14:45;;;;;;;4.05;3.65;;;;;;;19.53;100.00;98411.69;1714783;82;20938;-61
2022/07/03 03:17:22;;;;;;;4.05;3.65;;;;;;;19.49;100.00;98409.42;1745301;81;21020;-61
2022/07/03 03:19:57;;;;;;;4.53;3.20;;;;;;;19.49;100.00;98417.58;1713907;82;20930;-61
2022/07/03 03:22:58;;;;;;;3.40;3.10;;;;;;;19.46;100.00;98412.25;1745795;82;20989;-61
2022/07/03 03:25:25;;;;;;;6.78;3.37;;;;;;;19.50;100.00;98405.59;1745809;82;21231;-59
2022/07/03 03:27:52;;;;;;;4.42;4.03;;;;;;;19.55;100.00;98412.14;1745611;82;20962;-61
2022/07/03 03:30:19;;;;;;;3.77;3.00;;;;;;;19.53;100.00;98416.56;1745729;82;20933;-63
2022/07/03 03:32:47;;;;;;;4.28;2.77;;;;;;;19.51;100.00;98423.45;1745636;82;20875;-60
2022/07/03 03:35:13;;;;;;;2.80;2.60;;;;;;;19.53;100.00;98415.20;1746008;82;21517;-62
2022/07/03 03:37:40;;;;;;;3.10;2.80;;;;;;;19.56;100.00;98419.97;1745994;82;21398;-60
2022/07/03 03:40:09;;;;;;;3.87;3.00;;;;;;;19.59;100.00;98419.86;1745720;82;20847;-62
2022/07/03 03:42:35;;;;;;;3.60;3.30;;;;;;;19.57;100.00;98417.46;1745947;82;20918;-59
2022/07/03 03:45:03;;;;;;;4.03;3.47;;;;;;;19.57;100.00;98420.17;1745361;81;20973;-60
2022/07/03 03:47:30;;;;;;;3.62;3.02;;;;;;;19.59;100.00;98423.94;1743516;82;21438;-59
2022/07/03 03:49:56;;;;;;;3.92;3.40;;;;;;;19.60;100.00;98426.86;1743633;82;21727;-61
2022/07/03 03:52:23;;;;;;;4.12;2.80;;;;;;;19.58;100.00;98423.70;1743345;82;20931;-64
2022/07/03 03:54:50;;;;;;;3.25;2.90;;;;;;;19.55;100.00;98424.36;1743515;82;20883;-63
2022/07/03 03:57:22;;;;;;;2.72;2.47;;;;;;;19.49;100.00;98423.01;1743425;82;20926;-62
2022/07/03 03:59:49;;;;;;;2.83;2.52;;;;;;;19.49;100.00;98424.37;1743151;81;20852;-63
2022/07/03 04:02:16;;;;;;;3.83;2.90;;;;;;;19.56;100.00;98424.60;1743446;82;22051;-62
2022/07/03 04:04:43;;;;;;;3.15;2.85;;;;;;;19.64;100.00;98429.16;1743353;82;20931;-61
2022/07/03 04:07:09;;;;;;;2.95;2.75;;;;;;;19.62;100.00;98430.03;1743439;82;20875;-60
2022/07/03 04:09:36;;;;;;;3.37;2.40;;;;;;;19.61;100.00;98428.46;1743454;82;20939;-65
2022/07/03 04:12:04;;;;;;;2.20;2.00;;;;;;;19.63;100.00;98429.71;1743498;82;20981;-63
2022/07/03 04:14:31;;;;;;;2.80;2.20;;;;;;;19.68;100.00;98428.69;1743518;82;21702;-60
2022/07/03 04:16:57;;;;;;;2.42;1.87;;;;;;;19.68;100.00;98425.42;1743361;82;20847;-62
2022/07/03 04:19:24;;;;;;;2.50;2.30;;;;;;;19.70;100.00;98423.70;1743514;82;20883;-60
2022/07/03 04:21:51;;;;;;;2.25;2.05;;;;;;;19.69;100.00;98424.83;1662034;82;20906;-60
2022/07/03 04:24:18;;;;;;;2.30;2.10;;;;;;;19.70;100.00;98427.78;1743443;82;20919;-63
2022/07/03 04:26:44;;;;;;;2.72;2.52;;;;;;;19.69;100.00;98420.75;1743481;82;21039;-62
2022/07/03 04:29:11;;;;;;;2.62;2.42;;;;;;;19.69;100.00;98424.83;1743364;82;20879;-60
2022/07/03 04:31:37;;;;;;;3.45;3.05;;;;;;;19.69;100.00;98424.83;1743516;82;20903;-62
2022/07/03 04:34:04;;;;;;;2.90;2.70;;;;;;;19.68;100.00;98421.34;1743428;82;21012;-64
2022/07/03 04:36:31;;;;;;;3.08;2.80;;;;;;;19.70;100.00;98420.99;1743542;82;20875;-62
2022/07/03 04:38:58;;;;;;;3.62;3.17;;;;;;;19.73;100.00;98414.89;1743420;82;21218;-64
2022/07/03 04:41:24;;;;;;;3.42;2.87;;;;;;;19.73;100.00;98421.68;1743430;82;21455;-63
2022/07/03 04:43:51;;;;;;;4.65;3.05;;;;;;;19.71;100.00;98422.59;1743415;82;20875;-62
2022/07/03 04:46:17;;;;;;;4.17;3.67;;;;;;;19.71;100.00;98426.08;1745268;81;21457;-62
2022/07/03 04:48:44;;;;;;;5.80;3.22;;;;;;;19.69;100.00;98422.11;1745983;82;21469;-60
2022/07/03 04:51:10;;;;;;;5.00;3.65;;;;;;;19.69;100.00;98424.83;1745749;82;21119;-60
2022/07/03 04:53:37;;;;;;;5.58;3.72;;;;;;;19.67;100.00;98423.02;1745773;82;20871;-62
2022/07/03 04:56:04;;;;;;;4.75;3.37;;;;;;;19.65;100.00;98423.92;1745887;82;20926;-64
2022/07/03 04:58:31;;;;;;;4.90;3.37;;;;;;;19.71;100.00;98422.59;1746062;82;21429;-64
2022/07/03 05:00:58;;;;;;;4.42;3.40;;;;;;;19.80;100.00;98417.83;1745797;82;20890;-62
2022/07/03 05:03:25;;;;;;;4.12;3.45;;;;;;;19.90;100.00;98419.30;1745781;82;21098;-60
2022/07/03 05:05:52;;;;;;;6.95;3.70;;;;;;;19.95;100.00;98422.56;1745818;82;21406;-60
2022/07/03 05:08:20;;;;;;;6.05;3.52;;;;;;;20.00;100.00;98418.27;1745869;82;20978;-60
2022/07/03 05:10:46;;;;;;;4.37;3.60;;;;;;;20.04;100.00;98418.39;1745750;82;20898;-60
2022/07/03 05:13:13;;;;;;;3.80;3.50;;;;;;;20.06;100.00;98418.27;1745766;82;20894;-61
2022/07/03 05:15:40;;;;;;;4.10;3.47;;;;;;;20.10;100.00;98419.17;1745762;82;20929;-60
2022/07/03 05:18:07;;;;;;;4.50;3.70;;;;;;;20.16;100.00;98420.51;1745691;82;20910;-63
2022/07/03 05:20:35;;;;;;;5.40;3.75;;;;;;;20.24;100.00;98420.19;1745775;82;20903;-61
2022/07/03 05:23:02;;;;;;;3.62;3.30;;;;;;;20.40;100.00;98414.27;1745841;82;21509;-62
2022/07/03 05:25:31;;;;;;;7.33;3.50;;;;;;;20.56;100.00;98415.12;1745775;82;20926;-62
2022/07/03 05:27:58;;;;;;;3.42;3.10;;;;;;;20.70;100.00;98416.12;1745756;82;21107;-62
2022/07/03 05:30:26;;;;;;;3.75;3.40;;;;;;;20.83;100.00;98421.16;1745685;82;20994;-63
2022/07/03 05:32:54;;;;;;;3.92;3.62;;;;;;;21.01;99.40;98418.35;1745819;82;20915;-66
2022/07/03 05:35:20;;;;;;;4.45;3.67;;;;;;;21.20;98.65;98419.08;1745695;82;20931;-65
2022/07/03 05:37:47;;;;;;;4.12;3.52;;;;;;;21.32;97.45;98416.28;1745827;82;20894;-63
2022/07/03 05:40:14;;;;;;;5.03;3.67;;;;;;;21.38;95.79;98416.27;1745805;82;21096;-65
2022/07/03 05:42:40;;;;;;;4.03;3.62;;;;;;;21.38;95.04;98420.35;1745676;82;20851;-62
2022/07/03 05:45:09;;;;;;;4.53;3.70;;;;;;;21.35;94.37;98421.04;1745377;81;20879;-64
2022/07/03 05:47:35;;;;;;;4.83;3.83;;;;;;;21.35;94.25;98419.68;1743354;82;20922;-60
2022/07/03 05:50:05;;;;;;;5.45;3.47;;;;;;;21.31;94.22;98421.53;1743550;82;45462;-60
2022/07/03 05:52:31;;;;;;;4.65;3.60;;;;;;;21.31;93.95;98420.73;1743378;82;21052;-60
2022/07/03 05:54:58;;;;;;;8.58;3.60;;;;;;;21.29;93.42;98421.06;1743274;82;20891;-63
2022/07/03 05:57:24;;;;;;;4.90;3.60;;;;;;;21.31;93.30;98421.53;1743309;82;20980;-65
2022/07/03 05:59:50;;;;;;;4.78;3.50;;;;;;;21.34;93.44;98423.53;1743320;82;21026;-63
2022/07/03 06:02:17;;;;;;;4.58;3.60;;;;;;;21.34;92.85;98424.89;1743369;82;20899;-61
2022/07/03 06:04:44;;;;;;;8.05;3.30;;;;;;;21.35;92.75;98431.94;1743432;82;21212;-62
2022/07/03 06:07:12;;;;;;;7.55;3.67;;;;;;;21.35;92.33;98426.49;1743326;82;21521;-60
2022/07/03 06:09:39;;;;;;;3.40;3.10;;;;;;;21.33;92.20;98428.78;1743634;82;21402;-62
2022/07/03 06:12:07;;;;;;;3.35;3.08;;;;;;;21.24;91.46;98436.33;1743404;82;20923;-61
2022/07/03 06:14:34;;;;;;;3.58;3.20;;;;;;;21.16;91.58;98432.38;1743385;82;20938;-64
2022/07/03 06:17:01;;;;;;;5.33;3.08;;;;;;;21.14;92.12;98432.73;1743336;82;21165;-64
2022/07/03 06:19:27;;;;;;;3.55;3.02;;;;;;;21.17;92.70;98438.06;1743541;82;21394;-63
2022/07/03 06:21:53;;;;;;;3.83;2.90;;;;;;;21.19;92.04;98428.41;1743417;82;20922;-63
2022/07/03 06:24:20;;;;;;;3.42;2.90;;;;;;;21.17;92.16;98436.14;1743315;82;21382;-61
2022/07/03 06:26:46;;;;;;;5.83;3.00;;;;;;;21.16;92.23;98434.55;1743316;82;20883;-65
2022/07/03 06:29:13;;;;;;;3.40;2.98;;;;;;;21.14;91.54;98432.73;1743604;82;21842;-63
2022/07/03 06:31:39;;;;;;;3.15;2.55;;;;;;;21.15;91.74;98437.03;1743351;82;20919;-60
2022/07/03 06:34:06;;;;;;;4.37;3.12;;;;;;;21.26;91.56;98431.31;1743304;82;20891;-65
2022/07/03 06:36:33;;;;;;;3.47;2.67;;;;;;;21.35;91.93;98425.13;1743388;82;20926;-61
2022/07/03 06:39:00;;;;;;;3.35;2.60;;;;;;;21.41;91.53;98429.16;1743443;82;20911;-62
2022/07/03 06:41:26;;;;;;;4.25;2.95;;;;;;;21.47;91.63;98435.95;1743423;82;21208;-63
2022/07/03 06:43:52;;;;;;;4.67;3.00;;;;;;;21.45;90.58;98439.61;1743354;81;20934;-62
2022/07/03 06:46:19;;;;;;;2.80;2.50;;;;;;;21.36;90.49;98432.73;1744436;81;21407;-62
2022/07/03 06:48:46;;;;;;;4.58;2.85;;;;;;;21.27;91.10;98435.61;1745777;82;21461;-63
2022/07/03 06:51:13;;;;;;;4.37;2.92;;;;;;;21.30;91.46;98433.55;1745707;82;20977;-62
2022/07/03 06:53:39;;;;;;;3.83;3.00;;;;;;;21.34;91.55;98435.80;1745775;82;21214;-64
2022/07/03 06:56:06;;;;;;;6.42;3.20;;;;;;;21.29;90.80;98441.49;1745903;82;20910;-60
2022/07/03 06:58:32;;;;;;;4.17;3.00;;;;;;;21.25;90.86;98435.17;1745780;82;20934;-62
2022/07/03 07:00:59;;;;;;;3.58;3.27;;;;;;;21.27;90.65;98434.24;1745672;82;20859;-63
2022/07/03 07:03:25;;;;;;;3.60;3.30;;;;;;;21.27;90.73;98434.84;1746023;82;21455;-64
2022/07/03 07:05:51;;;;;;;4.97;3.70;;;;;;;21.22;90.65;98437.22;1745683;82;21112;-63
2022/07/03 07:08:18;;;;;;;3.62;3.33;;;;;;;21.19;90.78;98435.22;1745722;82;20911;-64
2022/07/03 07:10:45;;;;;;;3.77;3.45;;;;;;;21.18;90.53;98430.89;1745680;82;20922;-61
2022/07/03 07:13:12;;;;;;;4.12;3.72;;;;;;;21.24;90.20;98430.87;1745591;82;20981;-63
2022/07/03 07:15:38;;;;;;;4.08;3.67;;;;;;;21.37;90.04;98431.02;1745705;82;20914;-64
2022/07/03 07:18:05;;;;;;;4.37;3.80;;;;;;;21.46;89.62;98426.75;1746029;82;21505;-64
2022/07/03 07:20:31;;;;;;;4.00;3.67;;;;;;;21.57;90.19;98431.92;1745838;82;20922;-66
2022/07/03 07:22:58;;;;;;;3.98;3.52;;;;;;;21.74;88.73;98428.25;1745845;82;20918;-64
2022/07/03 07:25:24;;;;;;;4.17;3.60;;;;;;;21.83;87.30;98428.86;1746168;82;21492;-60
2022/07/03 07:27:51;;;;;;;4.75;3.27;;;;;;;21.89;86.85;98423.17;1746163;82;21445;-62
2022/07/03 07:30:18;;;;;;;4.28;3.17;;;;;;;21.90;86.07;98422.05;1746129;82;21382;-61
2022/07/03 07:32:44;;;;;;;3.05;2.67;;;;;;;21.95;86.86;98419.05;1745938;82;21517;-62
2022/07/03 07:35:11;;;;;;;4.20;3.15;;;;;;;22.09;87.10;98413.33;1745924;82;20915;-64
2022/07/03 07:37:38;;;;;;;5.40;2.87;;;;;;;22.28;86.92;98418.06;1745873;82;20902;-65
2022/07/03 07:40:07;;;;;;;3.37;3.08;;;;;;;22.51;86.63;98411.33;1745912;82;20966;-63
2022/07/03 07:42:33;;;;;;;4.25;3.85;;;;;;;22.69;84.96;98405.69;1745795;82;21088;-63
2022/07/03 07:45:00;;;;;;;5.15;3.45;;;;;;;22.73;82.47;98397.78;1745780;82;21395;-64
2022/07/03 07:47:26;;;;;;;5.47;3.80;;;;;;;22.61;81.71;98399.28;1745758;82;20962;-65
2022/07/03 07:49:53;;;;;;;5.12;3.75;;;;;;;22.54;82.53;98400.47;1745899;82;20891;-61
2022/07/03 07:52:20;;;;;;;3.90;3.47;;;;;;;22.66;83.04;98400.37;1745851;82;20883;-61
2022/07/03 07:54:46;;;;;;;4.20;3.80;;;;;;;22.74;82.40;98402.67;1745801;82;21311;-62
2022/07/03 07:57:13;;;;;;;4.58;4.03;;;;;;;22.74;81.88;98400.73;1745779;82;20926;-66
2022/07/03 07:59:39;;;;;;;4.33;3.92;;;;;;;22.74;82.30;98403.47;1745803;82;20878;-64
2022/07/03 08:07:37;;;;;;;5.90;3.90;;;;;;;22.43;81.96;98410.38;1745927;82;21039;-61
2022/07/03 08:10:04;;;;;;;4.47;4.08;;;;;;;22.23;82.62;98410.15;1745740;82;20978;-60
2022/07/03 08:12:31;;;;;;;5.10;4.60;;;;;;;22.12;83.30;98409.09;1745792;82;20922;-64
2022/07/03 08:14:58;;;;;;;7.05;5.00;;;;;;;22.03;83.64;98408.50;1745823;82;20941;-64
2022/07/03 08:17:24;;;;;;;5.95;4.90;;;;;;;22.00;83.76;98411.97;1745819;82;20930;-63
2022/07/03 08:19:51;;;;;;;4.33;3.83;;;;;;;21.97;84.13;98409.38;1745907;82;21185;-66
2022/07/03 08:22:17;;;;;;;5.05;4.35;;;;;;;21.98;84.66;98411.50;1745742;82;20883;-63
2022/07/03 08:24:44;;;;;;;5.17;4.60;;;;;;;22.07;84.80;98416.22;1745908;82;20990;-60
2022/07/03 08:27:11;;;;;;;5.53;5.03;;;;;;;22.09;84.34;98417.42;1745885;82;20923;-63
2022/07/03 08:29:37;;;;;;;5.60;5.10;;;;;;;22.04;84.12;98414.98;1746072;82;21014;-63
2022/07/03 08:32:07;;;;;;;5.58;5.08;;;;;;;21.98;83.82;98418.31;1745996;82;21414;-63
2022/07/03 08:34:33;;;;;;;6.17;5.03;;;;;;;21.93;84.16;98425.44;1746156;82;20973;-64
2022/07/03 08:37:00;;;;;;;7.50;5.83;;;;;;;21.88;84.78;98425.10;1745879;82;20885;-64
2022/07/03 08:39:27;;;;;;;5.85;5.25;;;;;;;21.83;85.11;98430.02;1745866;82;20966;-63
2022/07/03 08:41:53;;;;;;;6.17;5.58;;;;;;;21.82;85.81;98427.86;1745750;82;20894;-65
2022/07/03 08:44:20;;;;;;;6.62;5.87;;;;;;;21.87;85.86;98428.20;1745881;82;21218;-63
2022/07/03 08:46:46;;;;;;;6.72;6.12;;;;;;;21.89;85.89;98432.16;1744853;81;20883;-61
2022/07/03 08:49:13;;;;;;;7.28;6.10;;;;;;;21.90;86.05;98428.86;1743377;82;21001;-61
2022/07/03 08:51:41;;;;;;;7.40;6.62;;;;;;;21.88;85.56;98433.88;1743490;82;20899;-62
2022/07/03 08:54:09;;;;;;;6.62;5.72;;;;;;;21.88;85.56;98442.06;1743466;82;20843;-62
2022/07/03 08:56:36;;;;;;;6.35;5.75;;;;;;;21.86;85.69;98445.72;1743494;82;21218;-64
2022/07/03 08:59:06;;;;;;;6.47;5.87;;;;;;;21.80;85.26;98445.95;1743459;82;21517;-62
2022/07/03 09:01:32;;;;;;;7.08;6.25;;;;;;;21.76;85.66;98446.41;1743473;82;20997;-62
2022/07/03 09:03:59;;;;;;;6.12;5.53;;;;;;;21.74;85.76;98443.25;1743463;82;21022;-66
2022/07/03 09:06:25;;;;;;;7.58;6.22;;;;;;;21.75;85.85;98444.05;1743492;82;20883;-65
2022/07/03 09:08:52;;;;;;;6.25;5.50;;;;;;;21.76;85.78;98449.14;1743565;82;21539;-64
2022/07/03 09:11:18;;;;;;;6.72;5.67;;;;;;;21.75;85.97;98453.59;1743382;82;20935;-61
2022/07/03 09:13:45;;;;;;;6.50;5.90;;;;;;;21.78;86.23;98457.78;1743283;82;20919;-64
2022/07/03 09:16:16;;;;;;;8.43;5.85;;;;;;;21.80;86.41;98455.48;1743648;82;21552;-66
2022/07/03 09:18:44;;;;;;;6.97;5.58;;;;;;;21.79;86.29;98452.53;1743362;82;20943;-64
2022/07/03 09:21:12;;;;;;;6.53;5.80;;;;;;;21.74;86.42;98458.81;1743361;82;21280;-65
2022/07/03 09:23:40;;;;;;;6.50;5.75;;;;;;;21.70;86.71;98458.73;1743313;81;20918;-65
2022/07/03 09:26:13;;;;;;;7.65;6.53;;;;;;;21.67;86.71;98450.45;1743448;82;20918;-66
2022/07/03 09:28:53;;;;;;;6.58;5.87;;;;;;;21.61;86.79;98449.94;1743358;82;20886;-66
2022/07/03 09:31:27;;;;;;;7.50;6.17;;;;;;;21.54;87.06;98448.41;1743513;82;20922;-63
2022/07/03 09:34:02;;;;;;;7.95;6.17;;;;;;;21.58;87.59;98449.27;1743447;82;21267;-60
2022/07/03 09:36:45;;;;;;;9.00;6.40;;;;;;;21.63;87.54;98452.31;1743301;82;20881;-61
2022/07/03 09:39:22;;;;;;;6.67;5.95;;;;;;;21.63;87.12;98444.92;1743474;82;20971;-65
2022/07/03 09:42:04;;;;;;;5.97;5.45;;;;;;;21.65;87.13;98445.36;1743381;82;20923;-65
2022/07/03 09:44:37;;;;;;;6.10;4.90;;;;;;;21.69;87.34;98442.14;1743274;81;20891;-62
2022/07/03 09:47:19;;;;;;;6.05;5.08;;;;;;;21.73;87.18;98444.98;1744415;81;21116;-64
2022/07/03 09:49:51;;;;;;;5.20;4.70;;;;;;;21.71;87.12;98450.79;1745819;82;20934;-62
2022/07/03 09:52:39;;;;;;;5.40;4.90;;;;;;;21.69;87.12;98446.83;1745730;82;20875;-60
2022/07/03 09:55:19;;;;;;;5.75;5.10;;;;;;;21.63;87.13;98442.20;1745685;82;20934;-62
2022/07/03 09:57:57;;;;;;;5.90;5.30;;;;;;;21.57;87.14;98444.98;1745850;82;21452;-64
2022/07/03 10:00:29;;;;;;;5.40;4.90;;;;;;;21.55;87.53;98443.16;1745828;82;21255;-65
2022/07/03 10:03:05;;;;;;;5.03;4.45;;;;;;;21.57;87.64;98444.19;1745217;82;20926;-64
2022/07/03 10:05:40;;;;;;;9.90;5.00;;;;;;;21.59;87.79;98441.33;1745746;82;20914;-63
2022/07/03 10:08:13;;;;;;;5.58;5.08;;;;;;;21.56;87.79;98442.02;1746052;82;20965;-67
2022/07/03 10:10:43;;;;;;;6.90;5.12;;;;;;;21.54;88.48;98436.14;1745876;82;21407;-65
2022/07/03 10:13:09;;;;;;;5.58;4.80;;;;;;;21.53;88.23;98440.55;1745985;82;21255;-64
2022/07/03 10:20:47;;;;;;;5.75;5.17;;;;;;;21.48;88.75;98437.52;1745789;82;20989;-63
2022/07/03 10:23:19;;;;;;;6.53;5.65;;;;;;;21.45;88.96;98436.88;1745714;82;20886;-67
2022/07/03 10:25:47;;;;;;;5.92;5.20;;;;;;;21.53;88.88;98441.36;1714102;81;21088;-63
2022/07/03 10:28:16;;;;;;;6.10;5.22;;;;;;;21.63;88.80;98431.86;1745607;82;20976;-64
2022/07/03 10:30:47;;;;;;;5.95;5.35;;;;;;;21.77;88.41;98440.39;1745812;82;20963;-62
2022/07/03 10:33:13;;;;;;;5.90;5.30;;;;;;;21.86;87.96;98442.98;1745766;82;20926;-67
2022/07/03 10:35:44;;;;;;;6.95;5.67;;;;;;;21.93;87.95;98437.70;1745877;82;21429;-64
2022/07/03 10:38:34;;;;;;;6.78;5.55;;;;;;;22.01;87.72;98433.98;1745109;82;21138;-67
2022/07/03 10:46:52;;;;;;;6.30;5.70;;;;;;;22.36;85.45;98425.24;1745467;81;21164;-65
2022/07/03 10:49:19;;;;;;;6.30;5.62;;;;;;;22.49;84.60;98419.29;1743447;82;20922;-65
2022/07/03 10:51:52;;;;;;;9.05;5.50;;;;;;;22.62;83.82;98419.98;1743407;82;21112;-66
2022/07/03 10:54:23;;;;;;;6.10;5.50;;;;;;;22.75;83.12;98425.52;1743493;82;20871;-66
2022/07/03 10:57:04;;;;;;;5.40;4.72;;;;;;;22.94;82.52;98413.22;1743592;82;20915;-61
2022/07/03 10:59:45;;;;;;;6.40;4.60;;;;;;;23.12;81.03;98413.00;1743663;82;20934;-64
2022/07/03 11:02:24;;;;;;;4.97;4.58;;;;;;;23.29;80.55;98415.05;1743618;82;20934;-65
2022/07/03 11:05:03;;;;;;;5.53;5.00;;;;;;;23.48;79.76;98406.83;1722555;82;21225;-62
2022/07/03 11:07:55;;;;;;;4.92;4.45;;;;;;;23.70;79.79;98408.75;1743635;82;20871;-62
2022/07/03 11:10:29;;;;;;;4.42;4.03;;;;;;;23.88;77.79;98405.74;1725026;82;21465;-62
2022/07/03 11:13:07;;;;;;;5.90;4.30;;;;;;;24.00;77.71;98408.25;1743598;82;20970;-63
2022/07/03 11:15:51;;;;;;;4.53;4.12;;;;;;;24.12;76.89;98394.99;1743658;82;20924;-65
2022/07/03 11:18:33;;;;;;;4.40;4.00;;;;;;;24.24;74.44;98407.86;1743624;82;21201;-62
2022/07/03 11:21:24;;;;;;;5.00;3.95;;;;;;;24.18;73.80;98398.41;1743617;82;20899;-61
2022/07/03 11:24:20;;;;;;;4.58;4.17;;;;;;;24.16;74.34;98393.88;1743441;82;20914;-62
2022/07/03 11:27:16;;;;;;;4.80;4.40;;;;;;;24.21;74.49;98394.14;1743666;82;20898;-60
2022/07/03 11:29:50;;;;;;;4.67;3.67;;;;;;;24.07;74.09;98393.34;1726773;82;21021;-61
2022/07/03 11:32:57;;;;;;;7.27;4.53;;;;;;;23.98;74.94;98396.89;1744126;82;21072;-65
2022/07/03 11:35:48;;;;;;;5.72;4.83;;;;;;;23.94;74.82;98394.69;1743422;82;20946;-63
2022/07/03 11:38:21;;;;;;;6.97;4.42;;;;;;;23.79;75.09;98394.24;1743527;82;21497;-61
2022/07/03 11:40:50;;;;;;;4.62;3.83;;;;;;;23.65;75.47;98392.65;1743644;82;21461;-62
2022/07/03 11:43:17;;;;;;;5.12;4.62;;;;;;;23.60;76.51;98388.88;1743570;82;20871;-63
2022/07/03 11:45:45;;;;;;;4.87;4.22;;;;;;;23.61;76.60;98382.23;1743641;82;21113;-64
2022/07/03 11:48:15;;;;;;;7.78;4.17;;;;;;;23.60;76.90;98386.91;1743391;82;20923;-64
2022/07/03 11:50:46;;;;;;;6.47;3.72;;;;;;;23.55;76.83;98380.38;1743587;82;21389;-61
2022/07/03 11:53:21;;;;;;;3.85;3.50;;;;;;;23.53;75.03;98383.30;1743549;82;21025;-64
2022/07/03 11:56:01;;;;;;;4.15;3.75;;;;;;;23.46;75.38;98384.55;1743965;82;20986;-60
2022/07/03 11:58:46;;;;;;;3.90;3.50;;;;;;;23.42;75.24;98375.47;1743678;82;21221;-65
2022/07/03 12:01:29;;;;;;;4.40;3.90;;;;;;;23.51;76.12;98381.48;1743592;82;20969;-61
2022/07/03 12:04:18;;;;;;;6.90;3.87;;;;;;;23.60;74.42;98376.58;1743404;82;20986;-65